Time;durP1;ratioP1;P1;durP2;ratioP2;P2;SDS_P1;SDS_P2;PMS_P1;PMS_P2;Temp;Humidity;BMP_temperature;BMP_pressure;BME280_temperature;BME280_humidity;BME280_pressure;Samples;Min_cycle;Max_cycle;Signal;HPM_P1;HPM_P2
2022/04/15 00:02:17;;;;;;;;;;;;;;;17.71;44.71;101377.00;5076173;28;846;-67
2022/04/15 00:04:42;;;;;;;;;;;;;;;17.65;44.99;101381.66;5075801;28;869;-67
2022/04/15 00:07:10;;;;;;;;;;;;;;;17.71;44.75;101386.13;5076304;28;761;-68
2022/04/15 00:09:36;;;;;;;;;;;;;;;17.66;44.79;101377.00;5076298;28;797;-67
2022/04/15 00:12:06;;;;;;;;;;;;;;;17.69;44.65;101376.47;5076356;28;770;-67
2022/04/15 00:14:33;;;;;;;;;;;;;;;17.66;44.78;101377.81;5075879;28;842;-68
2022/04/15 00:16:59;;;;;;;;;;;;;;;17.68;44.86;101372.06;5075016;28;1089;-68
2022/04/15 00:19:24;;;;;;;;;;;;;;;17.70;44.66;101376.19;5076083;28;1914;-67
2022/04/15 00:21:50;;;;;;;;;;;;;;;17.69;44.90;101365.47;5076026;28;841;-69
2022/04/15 00:24:15;;;;;;;;;;;;;;;17.72;44.80;101374.00;5078214;28;871;-68
2022/04/15 00:26:41;;;;;;;;;;;;;;;17.71;44.97;101375.13;5079544;28;1076;-67
2022/04/15 00:29:07;;;;;;;;;;;;;;;17.69;44.78;101365.47;5079895;28;738;-68
2022/04/15 00:31:33;;;;;;;;;;;;;;;17.70;44.92;101370.69;5079120;28;853;-67
2022/04/15 00:33:58;;;;;;;;;;;;;;;17.70;44.82;101367.13;5079768;28;896;-66
2022/04/15 00:36:24;;;;;;;;;;;;;;;17.65;44.84;101359.66;5079610;28;809;-67
2022/04/15 00:38:49;;;;;;;;;;;;;;;17.71;44.93;101361.38;5079863;28;1910;-67
2022/04/15 00:41:15;;;;;;;;;;;;;;;17.67;45.04;101360.25;5079755;28;936;-66
2022/04/15 00:43:40;;;;;;;;;;;;;;;17.74;44.76;101358.06;5078970;28;763;-66
2022/04/15 00:46:09;;;;;;;;;;;;;;;17.73;44.96;101361.91;5068225;28;1009;-68
2022/04/15 00:48:35;;;;;;;;;;;;;;;17.82;45.04;101359.47;5061441;28;898;-68
2022/04/15 00:51:01;;;;;;;;;;;;;;;17.79;44.86;101357.25;5079273;28;1075;-67
2022/04/15 00:53:28;;;;;;;;;;;;;;;17.72;44.99;101354.75;5079770;28;842;-69
2022/04/15 00:55:54;;;;;;;;;;;;;;;17.78;45.17;101359.19;5079018;28;1537;-68
2022/04/15 00:58:20;;;;;;;;;;;;;;;17.78;44.82;101358.34;5061560;28;1975;-67
2022/04/15 01:00:45;;;;;;;;;;;;;;;17.79;45.06;101363.59;5060779;28;1127;-67
2022/04/15 01:03:11;;;;;;;;;;;;;;;17.76;44.90;101353.13;5079225;28;943;-66
2022/04/15 01:05:37;;;;;;;;;;;;;;;17.74;45.21;101358.06;5061000;28;1152;-68
2022/04/15 01:08:03;;;;;;;;;;;;;;;17.78;45.04;101353.69;5078557;28;817;-68
2022/04/15 01:10:29;;;;;;;;;;;;;;;17.81;44.83;101348.72;5079102;28;739;-68
2022/04/15 01:12:57;;;;;;;;;;;;;;;17.78;45.16;101342.69;5078897;28;806;-68
2022/04/15 01:15:26;;;;;;;;;;;;;;;17.81;45.09;101352.34;5078474;28;1021;-70
2022/04/15 01:17:51;;;;;;;;;;;;;;;17.87;45.02;101354.00;5078631;28;1056;-70
2022/04/15 01:20:17;;;;;;;;;;;;;;;17.87;45.18;101347.69;5078955;28;1969;-70
2022/04/15 01:22:43;;;;;;;;;;;;;;;17.83;45.03;101347.38;5071698;28;861;-70
2022/04/15 01:25:09;;;;;;;;;;;;;;;17.80;45.04;101347.91;5078586;28;826;-70
2022/04/15 01:27:35;;;;;;;;;;;;;;;17.66;44.37;101344.81;5078211;28;1119;-69
2022/04/15 01:30:01;;;;;;;;;;;;;;;17.51;43.42;101344.75;5076675;28;808;-69
2022/04/15 01:32:27;;;;;;;;;;;;;;;17.30;42.57;101338.28;5075395;28;944;-69
2022/04/15 01:34:52;;;;;;;;;;;;;;;17.13;42.21;101343.94;5074465;28;892;-69
2022/04/15 01:37:19;;;;;;;;;;;;;;;16.98;41.40;101334.47;5077988;28;862;-70
2022/04/15 01:39:45;;;;;;;;;;;;;;;16.82;40.93;101330.75;5078181;28;1966;-68
2022/04/15 01:42:10;;;;;;;;;;;;;;;16.73;41.04;101338.66;5061025;28;857;-68
2022/04/15 01:44:36;;;;;;;;;;;;;;;16.65;40.50;101333.63;5078305;28;770;-70
2022/04/15 01:47:01;;;;;;;;;;;;;;;16.58;40.49;101327.53;5059500;28;983;-69
2022/04/15 01:49:27;;;;;;;;;;;;;;;16.51;40.20;101337.84;5078057;28;770;-68
2022/04/15 01:51:52;;;;;;;;;;;;;;;16.56;41.15;101326.94;5078868;28;724;-69
2022/04/15 01:54:18;;;;;;;;;;;;;;;16.68;41.83;101327.59;5078423;28;786;-68
2022/04/15 01:56:43;;;;;;;;;;;;;;;16.82;43.01;101322.50;5078534;28;762;-67
2022/04/15 01:59:09;;;;;;;;;;;;;;;17.02;43.61;101319.13;5078087;28;1902;-68
2022/04/15 02:01:35;;;;;;;;;;;;;;;17.10;44.30;101309.56;5077386;28;966;-68
2022/04/15 02:04:00;;;;;;;;;;;;;;;17.20;44.49;101315.13;5078218;28;853;-67
2022/04/15 02:06:26;;;;;;;;;;;;;;;17.32;44.90;101314.94;5077949;28;749;-67
2022/04/15 02:08:51;;;;;;;;;;;;;;;17.31;44.92;101307.78;5077739;28;936;-68
2022/04/15 02:11:17;;;;;;;;;;;;;;;17.41;44.88;101310.59;5078211;28;825;-68
2022/04/15 02:13:42;;;;;;;;;;;;;;;17.38;45.24;101305.63;5077855;28;766;-68
2022/04/15 02:16:08;;;;;;;;;;;;;;;17.43;45.35;101299.31;5077139;28;1102;-66
2022/04/15 02:18:34;;;;;;;;;;;;;;;17.49;45.24;101308.41;5077797;28;1957;-66
2022/04/15 02:20:59;;;;;;;;;;;;;;;17.54;45.46;101303.78;5077523;28;798;-66
2022/04/15 02:23:25;;;;;;;;;;;;;;;17.57;45.29;101300.50;5077606;28;820;-66
2022/04/15 02:25:50;;;;;;;;;;;;;;;17.57;45.46;101305.16;5075685;28;907;-67
2022/04/15 02:28:16;;;;;;;;;;;;;;;17.57;45.29;101299.66;5077172;28;1035;-66
2022/04/15 02:30:41;;;;;;;;;;;;;;;17.64;45.50;101300.25;5077383;28;930;-67
2022/04/15 02:33:07;;;;;;;;;;;;;;;17.59;45.46;101294.75;5077704;28;806;-67
2022/04/15 02:35:32;;;;;;;;;;;;;;;17.64;45.32;101300.25;5077209;28;881;-69
2022/04/15 02:37:58;;;;;;;;;;;;;;;17.65;45.38;101301.09;5076873;28;817;-68
2022/04/15 02:40:24;;;;;;;;;;;;;;;17.70;45.33;101295.63;5077568;28;1976;-65
2022/04/15 02:42:49;;;;;;;;;;;;;;;17.71;45.50;101295.34;5058837;28;1012;-66
2022/04/15 02:45:14;;;;;;;;;;;;;;;17.73;45.38;101298.66;5076947;28;883;-67
2022/04/15 02:47:41;;;;;;;;;;;;;;;17.74;45.26;101285.72;5077184;28;818;-66
2022/04/15 02:50:06;;;;;;;;;;;;;;;17.79;45.25;101296.75;5076867;28;857;-67
2022/04/15 02:52:32;;;;;;;;;;;;;;;17.77;45.44;101291.50;5077047;28;953;-66
2022/04/15 02:54:58;;;;;;;;;;;;;;;17.85;45.27;101290.19;5077519;28;867;-66
2022/04/15 02:57:23;;;;;;;;;;;;;;;17.81;45.27;101282.72;5059201;28;834;-66
2022/04/15 02:59:49;;;;;;;;;;;;;;;17.86;45.14;101285.50;5077022;28;1992;-66
2022/04/15 03:02:15;;;;;;;;;;;;;;;17.82;45.50;101289.88;5077169;28;726;-67
2022/04/15 03:04:40;;;;;;;;;;;;;;;17.86;45.53;101296.50;5076338;28;830;-66
2022/04/15 03:07:06;;;;;;;;;;;;;;;17.85;45.45;101294.84;5077103;28;707;-66
2022/04/15 03:09:31;;;;;;;;;;;;;;;17.80;45.60;101298.41;5076892;28;874;-66
2022/04/15 03:11:56;;;;;;;;;;;;;;;17.82;45.13;101300.88;5076825;28;940;-66
2022/04/15 03:14:22;;;;;;;;;;;;;;;17.74;44.95;101297.56;5076930;28;718;-66
2022/04/15 03:16:47;;;;;;;;;;;;;;;17.76;45.19;101308.28;5070794;28;1142;-67
2022/04/15 03:19:13;;;;;;;;;;;;;;;17.71;44.98;101300.84;5057849;28;1959;-67
2022/04/15 03:21:38;;;;;;;;;;;;;;;17.70;44.91;101298.38;5076514;28;834;-67
2022/04/15 03:24:04;;;;;;;;;;;;;;;17.72;44.77;101301.66;5076502;28;761;-68
2022/04/15 03:26:30;;;;;;;;;;;;;;;17.67;44.72;101298.88;5076530;28;1048;-66
2022/04/15 03:28:55;;;;;;;;;;;;;;;17.62;44.92;101291.44;5057624;28;1157;-65
2022/04/15 03:31:21;;;;;;;;;;;;;;;17.68;44.89;101293.13;5075705;28;989;-67
2022/04/15 03:33:46;;;;;;;;;;;;;;;17.62;44.83;101296.94;5058122;28;1177;-66
2022/04/15 03:36:12;;;;;;;;;;;;;;;17.62;44.53;101306.00;5076825;28;846;-67
2022/04/15 03:38:37;;;;;;;;;;;;;;;17.65;44.64;101310.16;5076416;28;1910;-66
2022/04/15 03:41:03;;;;;;;;;;;;;;;17.62;44.52;101317.00;5076031;28;849;-69
2022/04/15 03:43:29;;;;;;;;;;;;;;;17.52;44.59;101302.41;5076514;28;793;-68
2022/04/15 03:45:55;;;;;;;;;;;;;;;17.54;44.42;101311.19;5076326;28;883;-68
2022/04/15 03:48:20;;;;;;;;;;;;;;;17.51;44.44;101307.06;5075915;28;1416;-66
2022/04/15 03:50:46;;;;;;;;;;;;;;;17.66;44.32;101309.06;5076358;28;739;-68
2022/04/15 03:53:11;;;;;;;;;;;;;;;17.82;43.86;101303.63;5076373;28;825;-66
2022/04/15 03:55:37;;;;;;;;;;;;;;;17.75;44.05;101307.47;5074692;28;1318;-67
2022/04/15 03:58:02;;;;;;;;;;;;;;;17.71;44.40;101308.25;5074003;28;1214;-64
2022/04/15 04:00:27;;;;;;;;;;;;;;;17.71;44.34;101314.59;5079937;28;1981;-63
2022/04/15 04:02:53;;;;;;;;;;;;;;;17.65;44.44;101307.41;5080198;28;970;-64
2022/04/15 04:05:19;;;;;;;;;;;;;;;17.68;44.29;101320.63;5080536;28;830;-63
2022/04/15 04:07:44;;;;;;;;;;;;;;;17.63;44.03;101309.63;5079552;28;818;-66
2022/04/15 04:10:13;;;;;;;;;;;;;;;17.61;43.98;101304.38;5061805;28;1172;-65
2022/04/15 04:12:39;;;;;;;;;;;;;;;17.61;43.99;101311.78;5080090;28;805;-64
2022/04/15 04:15:05;;;;;;;;;;;;;;;17.56;44.29;101311.78;5077543;28;823;-60
2022/04/15 04:17:30;;;;;;;;;;;;;;;17.53;44.00;101301.28;5077214;28;1177;-63
2022/04/15 04:19:56;;;;;;;;;;;;;;;17.53;44.26;101312.28;5079624;28;1905;-61
2022/04/15 04:22:21;;;;;;;;;;;;;;;17.51;43.79;101309.00;5079710;28;799;-62
2022/04/15 04:24:47;;;;;;;;;;;;;;;17.53;44.09;101315.03;5079971;28;822;-60
2022/04/15 04:27:12;;;;;;;;;;;;;;;17.55;43.86;101307.38;5079923;28;985;-64
2022/04/15 04:29:37;;;;;;;;;;;;;;;17.50;43.94;101304.59;5080053;28;824;-61
2022/04/15 04:32:03;;;;;;;;;;;;;;;17.56;43.75;101303.53;5076344;28;982;-61
2022/04/15 04:34:28;;;;;;;;;;;;;;;17.54;43.87;101308.44;5075153;28;834;-61
2022/04/15 04:36:54;;;;;;;;;;;;;;;17.55;43.84;101304.63;5079700;28;963;-64
2022/04/15 04:39:19;;;;;;;;;;;;;;;17.56;43.79;101312.59;5079644;28;1973;-65
2022/04/15 04:41:45;;;;;;;;;;;;;;;17.59;44.02;101319.50;5079337;28;968;-62
2022/04/15 04:44:10;;;;;;;;;;;;;;;17.60;44.18;101315.66;5079706;28;793;-64
2022/04/15 04:46:36;;;;;;;;;;;;;;;17.56;44.00;101314.53;5078810;28;954;-65
2022/04/15 04:49:01;;;;;;;;;;;;;;;17.60;44.20;101310.97;5061581;28;854;-65
2022/04/15 04:51:27;;;;;;;;;;;;;;;17.59;44.04;101308.50;5071727;28;1099;-65
2022/04/15 04:53:52;;;;;;;;;;;;;;;17.61;44.25;101317.28;5056763;28;882;-64
2022/04/15 04:56:18;;;;;;;;;;;;;;;17.63;44.32;101323.38;5061625;28;917;-64
2022/04/15 04:58:43;;;;;;;;;;;;;;;17.62;44.24;101313.44;5075461;28;1886;-62
2022/04/15 05:01:08;;;;;;;;;;;;;;;17.66;44.38;101317.31;5072873;28;940;-63
2022/04/15 05:03:34;;;;;;;;;;;;;;;17.62;44.34;101308.75;5079771;28;766;-64
2022/04/15 05:05:59;;;;;;;;;;;;;;;17.69;44.27;101318.72;5078696;28;1030;-64
2022/04/15 05:08:25;;;;;;;;;;;;;;;17.71;44.59;101314.59;5079398;28;859;-64
2022/04/15 05:10:50;;;;;;;;;;;;;;;17.73;44.22;101319.84;5074212;28;1091;-65
2022/04/15 05:13:15;;;;;;;;;;;;;;;17.66;44.52;101311.81;5075914;28;861;-64
2022/04/15 05:15:41;;;;;;;;;;;;;;;17.68;44.68;101322.56;5075190;28;1176;-65
2022/04/15 05:18:06;;;;;;;;;;;;;;;17.71;44.45;101322.84;5079128;28;826;-64
2022/04/15 05:20:32;;;;;;;;;;;;;;;17.66;44.38;101322.00;5078754;28;1914;-64
2022/04/15 05:22:58;;;;;;;;;;;;;;;17.68;44.56;101319.81;5077520;28;1241;-63
2022/04/15 05:25:23;;;;;;;;;;;;;;;17.62;44.42;101313.44;5071515;28;903;-64
2022/04/15 05:27:49;;;;;;;;;;;;;;;17.64;44.80;101319.50;5078644;28;1123;-64
2022/04/15 05:30:15;;;;;;;;;;;;;;;17.66;44.54;101314.56;5076772;28;839;-65
2022/04/15 05:32:40;;;;;;;;;;;;;;;17.72;44.76;101319.00;5060509;28;1162;-67
2022/04/15 05:35:07;;;;;;;;;;;;;;;17.64;44.70;101316.75;5078244;28;963;-68
2022/04/15 05:37:32;;;;;;;;;;;;;;;17.65;44.63;101323.91;5072898;28;813;-64
2022/04/15 05:39:58;;;;;;;;;;;;;;;17.59;44.96;101314.81;5078667;28;1901;-65
2022/04/15 05:42:26;;;;;;;;;;;;;;;17.65;44.72;101318.41;5078185;28;838;-65
2022/04/15 05:44:51;;;;;;;;;;;;;;;17.61;44.78;101311.78;5076723;28;1198;-66
2022/04/15 05:47:17;;;;;;;;;;;;;;;17.60;45.10;101315.66;5077699;28;1178;-66
2022/04/15 05:49:42;;;;;;;;;;;;;;;17.62;45.12;101313.44;5075434;28;845;-66
2022/04/15 05:52:08;;;;;;;;;;;;;;;17.60;45.07;101310.16;5078611;28;819;-65
2022/04/15 05:54:33;;;;;;;;;;;;;;;17.60;44.83;101315.66;5078536;28;817;-65
2022/04/15 05:56:58;;;;;;;;;;;;;;;17.57;44.99;101318.91;5077977;28;775;-66
2022/04/15 05:59:24;;;;;;;;;;;;;;;17.57;45.29;101321.66;5077630;28;1971;-66
2022/04/15 06:01:51;;;;;;;;;;;;;;;17.61;45.34;101326.38;5071915;28;963;-66
2022/04/15 06:04:17;;;;;;;;;;;;;;;17.60;44.88;101321.16;5058390;28;1301;-68
2022/04/15 06:06:42;;;;;;;;;;;;;;;17.61;44.95;101322.78;5077359;28;1409;-67
2022/04/15 06:09:08;;;;;;;;;;;;;;;17.57;44.98;101321.66;5078424;28;763;-68
2022/04/15 06:11:33;;;;;;;;;;;;;;;17.58;44.89;101317.81;5077865;28;754;-67
2022/04/15 06:14:01;;;;;;;;;;;;;;;17.62;44.92;101318.94;5077523;28;938;-67
2022/04/15 06:16:31;;;;;;;;;;;;;;;17.61;44.83;101317.28;5073521;28;1013;-69
2022/04/15 06:18:57;;;;;;;;;;;;;;;17.54;45.02;101319.44;5058844;28;1968;-67
2022/04/15 06:21:22;;;;;;;;;;;;;;;17.55;44.89;101323.88;5077476;28;776;-68
2022/04/15 06:23:48;;;;;;;;;;;;;;;17.55;45.03;101323.88;5077043;28;1103;-67
2022/04/15 06:26:13;;;;;;;;;;;;;;;17.53;45.04;101321.38;5077195;28;1277;-69
2022/04/15 06:28:38;;;;;;;;;;;;;;;17.53;45.01;101326.03;5077276;28;1049;-69
2022/04/15 06:31:04;;;;;;;;;;;;;;;17.57;45.17;101327.16;5075043;28;1015;-69
2022/04/15 06:33:29;;;;;;;;;;;;;;;17.57;44.90;101321.66;5069559;28;864;-68
2022/04/15 06:35:55;;;;;;;;;;;;;;;17.54;44.87;101317.53;5075661;28;1214;-68
2022/04/15 06:38:20;;;;;;;;;;;;;;;17.58;44.82;101317.81;5072389;28;1178;-63
2022/04/15 06:40:46;;;;;;;;;;;;;;;17.54;45.12;101323.03;5074044;28;1914;-65
2022/04/15 06:43:11;;;;;;;;;;;;;;;17.52;45.01;101325.22;5068705;28;1150;-66
2022/04/15 06:45:37;;;;;;;;;;;;;;;17.53;45.06;101315.88;5069630;28;871;-65
2022/04/15 06:48:02;;;;;;;;;;;;;;;17.54;44.85;101327.69;5077170;28;827;-63
2022/04/15 06:50:28;;;;;;;;;;;;;;;17.60;44.79;101329.41;5076223;28;1076;-64
2022/04/15 06:52:53;;;;;;;;;;;;;;;17.51;44.99;101326.31;5076785;28;858;-65
2022/04/15 06:55:19;;;;;;;;;;;;;;;17.53;45.09;101326.03;5076525;28;837;-65
2022/04/15 06:57:44;;;;;;;;;;;;;;;18.40;44.80;101333.84;5074375;28;1627;-64
2022/04/15 07:00:11;;;;;;;;;;;;;;;19.85;43.12;101324.34;5069944;28;1910;-67
2022/04/15 07:02:37;;;;;;;;;;;;;;;20.00;42.88;101334.50;5072553;28;782;-62
2022/04/15 07:05:06;;;;;;;;;;;;;;;18.99;45.16;101332.53;5071182;28;1195;-62
2022/04/15 07:07:32;;;;;;;;;;;;;;;17.92;47.26;101323.78;5072619;28;881;-62
2022/04/15 07:09:57;;;;;;;;;;;;;;;16.41;50.28;101336.69;5076829;28;905;-60
2022/04/15 07:12:23;;;;;;;;;;;;;;;17.18;46.34;101335.72;5076637;28;849;-60
2022/04/15 07:14:48;;;;;;;;;;;;;;;17.37;44.76;101322.38;5076160;28;882;-61
2022/04/15 07:17:14;;;;;;;;;;;;;;;17.34;44.14;101321.00;5070907;28;1183;-61
2022/04/15 07:19:39;;;;;;;;;;;;;;;17.35;43.68;101324.56;5072694;28;1906;-61
2022/04/15 07:22:07;;;;;;;;;;;;;;;17.24;43.50;101324.50;5076159;28;1132;-59
2022/04/15 07:24:33;;;;;;;;;;;;;;;17.24;43.32;101327.25;5073464;28;1331;-60
2022/04/15 07:26:59;;;;;;;;;;;;;;;17.19;42.91;101321.72;5075762;28;1132;-61
2022/04/15 07:29:26;;;;;;;;;;;;;;;17.13;42.87;101332.94;5075764;28;1308;-61
2022/04/15 07:31:52;;;;;;;;;;;;;;;18.26;47.46;101341.78;5070715;28;1479;-60
2022/04/15 07:34:17;;;;;;;;;;;;;;;19.45;44.75;101326.13;5075814;28;1000;-62
2022/04/15 07:36:44;;;;;;;;;;;;;;;18.61;46.80;101326.44;5076441;28;961;-61
2022/04/15 07:39:10;;;;;;;;;;;;;;;18.52;46.76;101330.81;5076236;28;1991;-61
2022/04/15 07:41:36;;;;;;;;;;;;;;;16.43;51.48;101317.22;5076373;28;733;-63
2022/04/15 07:44:03;;;;;;;;;;;;;;;17.27;47.79;101312.16;5070012;28;1273;-62
2022/04/15 07:46:28;;;;;;;;;;;;;;;17.39;45.98;101315.53;5074124;28;1168;-60
2022/04/15 07:48:54;;;;;;;;;;;;;;;17.38;45.24;101316.63;5076503;28;826;-61
2022/04/15 07:51:19;;;;;;;;;;;;;;;17.33;45.03;101313.81;5075397;28;1242;-60
2022/04/15 07:53:45;;;;;;;;;;;;;;;17.24;44.66;101312.69;5071791;28;1380;-59
2022/04/15 07:56:10;;;;;;;;;;;;;;;17.23;44.15;101308.28;5076556;28;754;-60
2022/04/15 07:58:36;;;;;;;;;;;;;;;17.22;44.04;101317.59;5073742;28;1922;-59
2022/04/15 08:01:01;;;;;;;;;;;;;;;17.17;44.05;101306.59;5075635;28;899;-59
2022/04/15 08:03:27;;;;;;;;;;;;;;;17.13;43.81;101308.22;5076888;28;761;-60
2022/04/15 08:05:52;;;;;;;;;;;;;;;17.09;43.69;101300.47;5075850;28;911;-61
2022/04/15 08:08:18;;;;;;;;;;;;;;;17.03;43.76;101298.81;5076395;28;757;-60
2022/04/15 08:10:43;;;;;;;;;;;;;;;17.08;43.71;101301.59;5070411;28;897;-61
2022/04/15 08:13:09;;;;;;;;;;;;;;;16.99;43.63;101305.91;5075803;28;857;-60
2022/04/15 08:15:34;;;;;;;;;;;;;;;16.98;43.52;101301.50;5071009;28;1163;-61
2022/04/15 08:18:00;;;;;;;;;;;;;;;16.92;43.59;101294.31;5075782;28;819;-63
2022/04/15 08:20:26;;;;;;;;;;;;;;;16.90;43.67;101293.75;5075245;28;1976;-65
2022/04/15 08:22:51;;;;;;;;;;;;;;;16.93;43.31;101296.81;5072873;28;1143;-62
2022/04/15 08:25:16;;;;;;;;;;;;;;;16.92;43.35;101286.91;5069935;28;835;-60
2022/04/15 08:27:42;;;;;;;;;;;;;;;16.90;43.27;101291.00;5075864;28;1198;-62
2022/04/15 08:30:07;;;;;;;;;;;;;;;16.90;43.92;101274.53;5072822;28;851;-62
2022/04/15 08:32:33;;;;;;;;;;;;;;;17.04;44.45;101275.75;5074999;28;1115;-60
2022/04/15 08:35:06;;;;;;;;;;;;;;;17.15;44.68;101278.53;5070435;28;1061;-61
2022/04/15 08:37:31;;;;;;;;;;;;;;;17.19;44.70;101271.44;5069610;28;774;-62
2022/04/15 08:39:57;;;;;;;;;;;;;;;17.23;44.91;101270.63;5075698;28;1898;-64
2022/04/15 08:42:22;;;;;;;;;;;;;;;17.24;45.05;101276.97;5075727;28;866;-63
2022/04/15 08:44:51;;;;;;;;;;;;;;;17.22;45.42;101266.25;5074264;28;1080;-63
2022/04/15 08:47:16;;;;;;;;;;;;;;;17.27;45.16;101269.00;5077719;28;1135;-63
2022/04/15 08:49:42;;;;;;;;;;;;;;;17.34;45.42;101265.19;5077785;28;1405;-61
2022/04/15 08:52:08;;;;;;;;;;;;;;;17.33;45.35;101258.84;5073883;28;1115;-62
2022/04/15 08:54:34;;;;;;;;;;;;;;;17.32;45.67;101254.47;5075044;28;1056;-59
2022/04/15 08:56:59;;;;;;;;;;;;;;;17.40;45.64;101255.88;5077942;28;857;-58
2022/04/15 08:59:25;;;;;;;;;;;;;;;17.38;45.46;101242.41;5079046;28;1980;-60
2022/04/15 09:01:50;;;;;;;;;;;;;;;17.43;45.66;101250.69;5075917;28;1040;-59
2022/04/15 09:04:17;;;;;;;;;;;;;;;17.33;45.54;101222.31;5079442;28;888;-60
2022/04/15 09:06:43;;;;;;;;;;;;;;;17.43;45.42;101236.94;5060253;28;1269;-59
2022/04/15 09:09:11;;;;;;;;;;;;;;;17.44;45.49;101237.75;5079087;28;774;-60
2022/04/15 09:11:37;;;;;;;;;;;;;;;17.42;45.63;101231.72;5079214;28;920;-59
2022/04/15 09:14:03;;;;;;;;;;;;;;;17.48;45.52;101235.31;5060314;28;858;-61
2022/04/15 09:16:30;;;;;;;;;;;;;;;17.50;45.58;101227.59;5074392;28;1220;-62
2022/04/15 09:18:55;;;;;;;;;;;;;;;17.51;45.56;101230.06;5079005;28;1966;-60
2022/04/15 09:21:21;;;;;;;;;;;;;;;17.51;45.61;101229.25;5061202;28;758;-60
2022/04/15 09:23:50;;;;;;;;;;;;;;;17.49;45.77;101223.19;5078325;28;1163;-58
2022/04/15 09:26:16;;;;;;;;;;;;;;;17.49;45.59;101225.94;5072860;28;1143;-58
2022/04/15 09:28:42;;;;;;;;;;;;;;;17.47;45.63;101222.66;5078470;28;900;-61
2022/04/15 09:31:13;;;;;;;;;;;;;;;17.53;45.67;101221.56;5076571;28;814;-60
2022/04/15 09:33:49;;;;;;;;;;;;;;;17.52;45.60;101214.41;5079080;28;844;-61
2022/04/15 09:36:21;;;;;;;;;;;;;;;17.54;45.46;101212.22;5060283;28;1222;-60
2022/04/15 09:38:49;;;;;;;;;;;;;;;17.52;45.54;101220.75;5078481;28;1972;-60
2022/04/15 09:41:22;;;;;;;;;;;;;;;17.57;45.54;101211.66;5078234;28;861;-62
2022/04/15 09:43:49;;;;;;;;;;;;;;;17.53;45.57;101216.06;5078437;28;862;-60
2022/04/15 09:46:15;;;;;;;;;;;;;;;17.60;45.58;101216.66;5071331;28;878;-60
2022/04/15 09:48:40;;;;;;;;;;;;;;;17.57;45.45;101211.66;5074474;28;1284;-59
2022/04/15 09:51:06;;;;;;;;;;;;;;;17.56;45.45;101216.34;5056554;28;1310;-59
2022/04/15 09:53:34;;;;;;;;;;;;;;;17.54;45.57;101209.47;5057354;28;1037;-58
2022/04/15 09:56:00;;;;;;;;;;;;;;;17.56;45.39;101205.34;5076762;28;1077;-59
2022/04/15 09:58:28;;;;;;;;;;;;;;;17.60;45.45;101208.41;5059108;28;1132;-58
2022/04/15 10:00:55;;;;;;;;;;;;;;;17.57;45.61;101203.41;5074387;28;1906;-59
2022/04/15 10:03:21;;;;;;;;;;;;;;;17.62;45.42;101206.19;5058085;28;1305;-58
2022/04/15 10:05:48;;;;;;;;;;;;;;;17.62;45.22;101204.25;5056081;28;1199;-58
2022/04/15 10:08:14;;;;;;;;;;;;;;;17.53;45.32;101194.06;5076773;28;1508;-60
2022/04/15 10:10:39;;;;;;;;;;;;;;;17.56;45.18;101190.78;5076547;28;1077;-62
2022/04/15 10:13:05;;;;;;;;;;;;;;;17.50;45.13;101191.84;5060193;28;1231;-63
2022/04/15 10:15:31;;;;;;;;;;;;;;;17.58;44.89;101189.41;5077018;28;891;-61
2022/04/15 10:17:57;;;;;;;;;;;;;;;17.57;45.07;101184.19;5075798;28;1493;-62
2022/04/15 10:20:24;;;;;;;;;;;;;;;17.54;45.08;101180.03;5054713;28;1907;-61
2022/04/15 10:22:49;;;;;;;;;;;;;;;17.51;45.06;101177.84;5056797;28;888;-63
2022/04/15 10:25:15;;;;;;;;;;;;;;;17.57;44.95;101170.44;5059049;28;1116;-63
2022/04/15 10:27:40;;;;;;;;;;;;;;;17.55;44.99;101167.13;5055124;28;1056;-62
2022/04/15 10:30:15;;;;;;;;;;;;;;;17.52;45.07;101164.94;5071230;28;814;-62
2022/04/15 10:32:47;;;;;;;;;;;;;;;17.53;44.74;101172.91;5077201;28;881;-63
2022/04/15 10:35:23;;;;;;;;;;;;;;;17.56;44.75;101177.03;5077564;28;864;-62
2022/04/15 10:37:55;;;;;;;;;;;;;;;17.58;44.82;101166.59;5077817;28;706;-62
2022/04/15 10:40:21;;;;;;;;;;;;;;;17.61;44.53;101166.88;5077349;28;1910;-61
2022/04/15 10:42:47;;;;;;;;;;;;;;;17.59;44.83;101160.00;5076112;28;822;-61
2022/04/15 10:45:25;;;;;;;;;;;;;;;17.56;44.72;101161.34;5075612;28;837;-63
2022/04/15 10:48:00;;;;;;;;;;;;;;;17.59;44.63;101160.81;5077446;28;887;-63
2022/04/15 10:50:26;;;;;;;;;;;;;;;17.57;44.63;101152.03;5077318;28;778;-62
2022/04/15 10:52:51;;;;;;;;;;;;;;;17.73;44.32;101146.56;5077129;28;821;-63
2022/04/15 10:55:16;;;;;;;;;;;;;;;17.62;44.51;101149.25;5058186;28;818;-63
2022/04/15 10:57:43;;;;;;;;;;;;;;;17.58;44.76;101141.84;5076946;28;835;-63
2022/04/15 11:02:59;;;;;;;;;;;;;;;17.58;44.90;101139.09;5072613;28;760;-64
2022/04/15 11:05:30;;;;;;;;;;;;;;;17.61;44.57;101142.13;5058980;28;1029;-62
2022/04/15 11:08:12;;;;;;;;;;;;;;;17.61;44.62;101130.28;5074597;28;944;-62
2022/04/15 11:10:37;;;;;;;;;;;;;;;17.61;44.67;101131.13;5074509;28;846;-63
2022/04/15 11:13:03;;;;;;;;;;;;;;;17.58;44.90;101139.09;5074986;28;1361;-64
2022/04/15 11:15:47;;;;;;;;;;;;;;;17.60;44.93;101129.47;5074142;28;1297;-62
2022/04/15 11:18:14;;;;;;;;;;;;;;;17.59;44.66;101127.81;5053088;28;1032;-64
2022/04/15 11:20:39;;;;;;;;;;;;;;;17.55;44.89;101117.63;5055386;28;1913;-63
2022/04/15 11:23:04;;;;;;;;;;;;;;;17.60;44.61;101123.16;5034887;28;1177;-63
2022/04/15 11:25:30;;;;;;;;;;;;;;;17.64;44.77;101124.25;5055627;28;1088;-62
2022/04/15 11:27:55;;;;;;;;;;;;;;;17.63;44.67;101125.34;5055089;28;1175;-63
2022/04/15 11:30:21;;;;;;;;;;;;;;;17.61;44.59;101116.53;5017413;28;1443;-61
2022/04/15 11:32:47;;;;;;;;;;;;;;;17.59;44.86;101116.81;5051802;28;1155;-63
2022/04/15 11:35:25;;;;;;;;;;;;;;;17.64;44.77;101124.25;5048993;28;979;-62
2022/04/15 11:37:50;;;;;;;;;;;;;;;17.81;44.56;101114.91;5056899;28;762;-63
2022/04/15 11:40:15;;;;;;;;;;;;;;;17.87;44.25;101109.16;5037912;28;1906;-61
2022/04/15 11:42:41;;;;;;;;;;;;;;;17.95;44.13;101108.63;5038209;28;1297;-61
2022/04/15 11:45:12;;;;;;;;;;;;;;;17.95;44.21;101096.81;5053594;28;814;-59
2022/04/15 11:47:37;;;;;;;;;;;;;;;17.94;44.28;101097.91;5050778;28;901;-58
2022/04/15 11:50:03;;;;;;;;;;;;;;;18.00;44.15;101099.56;5038393;28;830;-59
2022/04/15 11:52:28;;;;;;;;;;;;;;;17.89;43.28;101087.72;5056263;28;762;-61
2022/04/15 11:54:54;;;;;;;;;;;;;;;17.65;42.49;101092.09;5056382;28;945;-62
2022/04/15 11:57:19;;;;;;;;;;;;;;;17.48;41.63;101087.66;5056314;28;871;-62
2022/04/15 11:59:45;;;;;;;;;;;;;;;17.38;41.13;101088.47;5031795;28;2017;-61
2022/04/15 12:02:12;;;;;;;;;;;;;;;17.18;40.93;101080.16;5052160;28;951;-59
2022/04/15 12:04:47;;;;;;;;;;;;;;;17.18;40.52;101093.88;5055880;28;834;-61
2022/04/15 12:07:13;;;;;;;;;;;;;;;17.09;40.19;101086.16;5055771;28;857;-65
2022/04/15 12:09:39;;;;;;;;;;;;;;;16.89;40.05;101080.63;5055602;28;1266;-66
2022/04/15 12:12:06;;;;;;;;;;;;;;;16.78;39.48;101071.47;5053993;28;826;-65
2022/04/15 12:14:35;;;;;;;;;;;;;;;16.68;39.19;101074.16;5038311;28;831;-64
2022/04/15 12:17:01;;;;;;;;;;;;;;;16.53;39.42;101069.41;5065449;28;1030;-66
2022/04/15 12:19:26;;;;;;;;;;;;;;;16.64;39.98;101079.34;5067340;28;1901;-66
2022/04/15 12:21:52;;;;;;;;;;;;;;;16.71;40.69;101066.22;5069895;28;1219;-63
2022/04/15 12:24:22;;;;;;;;;;;;;;;16.90;41.83;101076.75;5079886;28;842;-66
2022/04/15 12:26:51;;;;;;;;;;;;;;;17.05;43.08;101079.56;5074865;28;1064;-65
2022/04/15 12:32:20;;;;;;;;;;;;;;;17.24;44.34;101068.09;5067538;28;1044;-62
2022/04/15 12:35:10;;;;;;;;;;;;;;;17.42;44.40;101072.25;5070102;28;1176;-63
2022/04/15 12:37:53;;;;;;;;;;;;;;;17.45;44.92;101066.22;5062849;28;1691;-62
2022/04/15 12:40:22;;;;;;;;;;;;;;;17.44;45.52;101062.63;5072395;28;1975;-65
2022/04/15 12:42:50;;;;;;;;;;;;;;;17.54;45.15;101055.50;5079558;28;1180;-65
2022/04/15 12:45:21;;;;;;;;;;;;;;;17.56;45.38;101053.31;5075493;28;1135;-65
2022/04/15 12:48:03;;;;;;;;;;;;;;;17.63;45.36;101064.84;5079013;28;833;-62
2022/04/15 12:50:31;;;;;;;;;;;;;;;17.74;45.42;101052.75;5070714;28;822;-65
2022/04/15 12:52:56;;;;;;;;;;;;;;;17.81;45.40;101035.16;5079168;28;1107;-63
2022/04/15 12:55:34;;;;;;;;;;;;;;;17.92;45.10;101045.06;5079107;28;913;-63